Time;durP1;ratioP1;P1;durP2;ratioP2;P2;SDS_P1;SDS_P2;PMS_P1;PMS_P2;Temp;Humidity;BMP_temperature;BMP_pressure;BME280_temperature;BME280_humidity;BME280_pressure;Samples;Min_cycle;Max_cycle;Signal;HPM_P1;HPM_P2
2022/11/29 00:01:10;;;;;;;20.80;15.60;;;10.50;99.90;;;;;;4955236;29;21000;-69
2022/11/29 00:03:36;;;;;;;20.70;15.17;;;10.50;99.90;;;;;;4955361;29;20513;-69
2022/11/29 00:06:11;;;;;;;22.10;14.23;;;10.50;99.90;;;;;;4955201;28;20434;-69
2022/11/29 00:08:37;;;;;;;22.60;15.50;;;10.50;99.90;;;;;;4954937;29;20464;-69
2022/11/29 00:11:05;;;;;;;21.80;15.60;;;10.40;99.90;;;;;;4955049;29;20465;-69
2022/11/29 00:13:31;;;;;;;24.93;16.93;;;10.50;99.90;;;;;;4955325;29;20433;-69
2022/11/29 00:16:01;;;;;;;20.00;15.10;;;10.50;99.90;;;;;;4955111;29;20944;-68
2022/11/29 00:18:27;;;;;;;22.73;16.07;;;10.50;99.90;;;;;;4955220;28;20233;-68
2022/11/29 00:20:52;;;;;;;22.40;14.47;;;10.50;99.90;;;;;;4955026;29;20502;-68
2022/11/29 00:23:17;;;;;;;25.00;16.20;;;10.50;99.90;;;;;;4955287;29;20261;-69
2022/11/29 00:25:43;;;;;;;24.13;16.10;;;10.50;99.90;;;;;;4955139;29;20547;-68
2022/11/29 00:28:08;;;;;;;29.10;17.63;;;10.50;99.90;;;;;;4954922;29;20174;-68
2022/11/29 00:30:34;;;;;;;24.90;16.50;;;10.50;99.90;;;;;;4955044;29;20179;-68
2022/11/29 00:33:01;;;;;;;29.47;15.57;;;10.50;99.90;;;;;;4954980;29;20186;-69
2022/11/29 00:35:27;;;;;;;28.17;17.27;;;10.50;99.90;;;;;;4955100;28;20186;-69
2022/11/29 00:37:52;;;;;;;23.27;16.33;;;10.50;99.90;;;;;;4954863;29;20438;-68
2022/11/29 00:40:18;;;;;;;25.07;17.10;;;10.50;99.90;;;;;;4954795;29;20178;-68
2022/11/29 00:42:43;;;;;;;26.77;17.77;;;10.50;99.90;;;;;;4954951;29;20182;-68
2022/11/29 00:45:10;;;;;;;21.50;15.43;;;10.50;99.90;;;;;;4954787;29;20175;-68
2022/11/29 00:47:35;;;;;;;25.43;14.33;;;10.50;99.90;;;;;;4954961;28;20185;-69
2022/11/29 00:50:01;;;;;;;22.00;14.93;;;10.50;99.90;;;;;;4954807;29;20501;-68
2022/11/29 00:52:26;;;;;;;23.30;16.03;;;10.50;99.90;;;;;;4954919;29;20589;-68
2022/11/29 00:54:52;;;;;;;24.10;16.23;;;10.50;99.90;;;;;;4954767;29;20669;-68
2022/11/29 00:57:17;;;;;;;23.87;14.70;;;10.60;99.90;;;;;;4954738;29;20202;-69
2022/11/29 00:59:43;;;;;;;23.70;16.37;;;10.50;99.90;;;;;;4954745;29;20178;-68
2022/11/29 01:02:08;;;;;;;23.17;16.33;;;10.60;99.90;;;;;;4954565;29;20206;-68
2022/11/29 01:04:34;;;;;;;24.53;16.23;;;10.60;99.90;;;;;;4954749;29;20171;-68
2022/11/29 01:07:00;;;;;;;22.47;13.73;;;10.60;99.90;;;;;;4954709;29;20179;-69
2022/11/29 01:09:25;;;;;;;24.07;15.67;;;10.60;99.90;;;;;;4954544;29;20171;-68
2022/11/29 01:11:51;;;;;;;26.10;14.80;;;10.60;99.90;;;;;;4954516;29;20586;-68
2022/11/29 01:14:16;;;;;;;25.33;16.57;;;10.50;99.90;;;;;;4954622;29;20170;-68
2022/11/29 01:16:42;;;;;;;22.10;16.57;;;10.60;99.90;;;;;;4954612;29;20198;-68
2022/11/29 01:19:07;;;;;;;33.73;15.50;;;10.60;99.90;;;;;;4955353;28;20586;-68
2022/11/29 01:21:33;;;;;;;23.40;16.57;;;10.60;99.90;;;;;;4958120;29;20225;-68
2022/11/29 01:23:59;;;;;;;25.00;15.37;;;10.60;99.90;;;;;;4958230;29;20229;-68
2022/11/29 01:26:27;;;;;;;22.03;14.90;;;10.60;99.90;;;;;;4958218;28;20182;-68
2022/11/29 01:28:54;;;;;;;22.70;14.87;;;10.60;99.90;;;;;;4958153;28;20428;-67
2022/11/29 01:31:38;;;;;;;20.93;14.90;;;10.60;99.90;;;;;;4958026;28;20449;-68
2022/11/29 05:32:16;;;;;;;32.30;13.47;;;10.30;99.90;;;;;;5227509;23;20491;-68
2022/11/29 05:35:01;;;;;;;23.83;13.10;;;10.30;99.90;;;;;;4995722;28;20436;-68
2022/11/29 05:37:38;;;;;;;31.40;12.67;;;10.30;99.90;;;;;;4995837;28;20432;-68
2022/11/29 05:40:44;;;;;;;33.37;15.23;;;10.30;99.90;;;;;;4995938;28;20428;-68
2022/11/29 05:43:24;;;;;;;29.37;14.80;;;10.30;99.90;;;;;;4973484;28;20463;-68
2022/11/29 05:46:21;;;;;;;28.97;14.60;;;10.30;99.90;;;;;;4995427;28;20420;-69
2022/11/29 05:48:57;;;;;;;30.73;15.83;;;10.30;99.90;;;;;;4995608;28;20471;-68
2022/11/29 05:52:04;;;;;;;41.53;16.83;;;10.30;99.90;;;;;;4995460;28;20438;-68
2022/11/29 05:54:35;;;;;;;31.00;15.50;;;10.30;99.90;;;;;;4980487;28;20519;-68
2022/11/29 05:57:22;;;;;;;33.20;17.63;;;10.30;99.90;;;;;;4974640;28;20443;-68
2022/11/29 05:59:49;;;;;;;30.43;16.57;;;10.30;99.90;;;;;;4995367;28;20428;-67
2022/11/29 06:02:45;;;;;;;36.33;16.87;;;10.30;99.90;;;;;;4995158;28;20499;-68
2022/11/29 06:05:44;;;;;;;34.53;15.70;;;10.30;99.90;;;;;;4994231;28;20482;-68
2022/11/29 06:08:15;;;;;;;32.80;17.33;;;10.30;99.90;;;;;;4995166;28;20428;-67
2022/11/29 06:11:12;;;;;;;30.03;15.13;;;10.30;99.90;;;;;;4995168;28;20939;-67
2022/11/29 06:14:18;;;;;;;30.40;15.00;;;10.30;99.90;;;;;;4994541;28;20780;-67
2022/11/29 06:17:24;;;;;;;33.03;15.07;;;10.30;99.90;;;;;;4995186;28;20762;-68
2022/11/29 06:20:09;;;;;;;29.80;15.27;;;10.30;99.90;;;;;;4994881;28;20423;-68
2022/11/29 06:23:12;;;;;;;29.87;17.57;;;10.20;99.90;;;;;;4994844;28;20476;-68
2022/11/29 06:25:57;;;;;;;44.47;16.77;;;10.20;99.90;;;;;;4994984;28;20435;-68
2022/11/29 06:28:47;;;;;;;33.83;16.63;;;10.20;99.90;;;;;;4994901;28;20428;-68
2022/11/29 06:31:18;;;;;;;36.37;13.70;;;10.20;99.90;;;;;;4994311;28;20472;-68
2022/11/29 06:34:06;;;;;;;31.43;14.73;;;10.20;99.90;;;;;;4994755;28;20432;-68
2022/11/29 06:37:20;;;;;;;34.43;13.87;;;10.20;99.90;;;;;;4994690;28;20452;-68
2022/11/29 06:39:46;;;;;;;26.93;13.30;;;10.20;99.90;;;;;;4915618;29;20443;-68
2022/11/29 06:42:11;;;;;;;34.13;15.87;;;10.20;99.90;;;;;;4985186;28;20486;-67
2022/11/29 06:44:37;;;;;;;35.40;15.07;;;10.20;99.90;;;;;;4994332;28;20174;-68
2022/11/29 06:47:26;;;;;;;33.83;15.40;;;10.20;99.90;;;;;;4994175;28;20423;-68
2022/11/29 06:50:02;;;;;;;34.10;15.73;;;10.20;99.90;;;;;;4994993;28;20184;-68
2022/11/29 06:52:31;;;;;;;30.07;15.53;;;10.20;99.90;;;;;;4994899;28;20498;-68
2022/11/29 06:55:18;;;;;;;30.97;14.60;;;10.20;99.90;;;;;;4994139;28;20794;-68
2022/11/29 06:58:09;;;;;;;33.77;16.07;;;10.20;99.90;;;;;;4995326;28;20432;-68
2022/11/29 07:00:53;;;;;;;35.07;14.90;;;10.20;99.90;;;;;;4994890;28;20550;-67
2022/11/29 07:03:36;;;;;;;40.50;17.03;;;10.20;99.90;;;;;;4995093;28;20443;-68
2022/11/29 07:06:21;;;;;;;38.23;14.97;;;10.10;99.90;;;;;;4995109;28;20420;-68
2022/11/29 07:08:52;;;;;;;35.80;16.90;;;10.10;99.90;;;;;;4995171;28;20435;-68
2022/11/29 07:11:17;;;;;;;42.43;17.33;;;10.20;99.90;;;;;;4995078;28;20468;-68
2022/11/29 07:13:43;;;;;;;54.57;16.70;;;10.10;99.90;;;;;;4995102;28;20525;-68
2022/11/29 07:16:32;;;;;;;42.47;17.67;;;10.10;99.90;;;;;;4994770;28;20177;-68
2022/11/29 07:19:16;;;;;;;36.00;15.67;;;10.10;99.90;;;;;;4994994;28;20185;-68
2022/11/29 07:22:05;;;;;;;43.00;18.00;;;10.10;99.90;;;;;;4994896;28;20531;-68
2022/11/29 07:24:54;;;;;;;49.83;16.60;;;10.10;99.90;;;;;;4994873;28;20451;-68
2022/11/29 07:27:40;;;;;;;41.80;15.50;;;10.10;99.90;;;;;;4994704;28;20899;-68
2022/11/29 07:30:15;;;;;;;45.17;16.90;;;10.10;99.90;;;;;;4994790;28;20416;-68
2022/11/29 07:32:56;;;;;;;40.77;17.17;;;10.20;99.90;;;;;;4994137;28;20476;-68
2022/11/29 07:35:44;;;;;;;34.73;15.07;;;10.20;99.90;;;;;;4997179;28;20470;-68
2022/11/29 07:38:27;;;;;;;39.40;14.67;;;10.10;99.90;;;;;;4994579;28;20429;-68
2022/11/29 07:41:28;;;;;;;39.60;16.10;;;10.10;99.90;;;;;;4994468;28;20499;-68
2022/11/29 07:44:08;;;;;;;37.47;16.53;;;10.20;99.90;;;;;;4994587;28;20827;-68
2022/11/29 07:46:34;;;;;;;35.00;15.73;;;10.10;99.90;;;;;;4994074;28;20425;-68
2022/11/29 07:48:59;;;;;;;45.23;16.40;;;10.10;99.90;;;;;;4994105;28;20482;-69
2022/11/29 07:51:25;;;;;;;43.73;15.47;;;10.10;99.90;;;;;;4994450;28;20335;-69
2022/11/29 07:53:50;;;;;;;36.47;15.53;;;10.20;99.90;;;;;;4994269;28;20173;-69
2022/11/29 07:56:16;;;;;;;30.67;15.67;;;10.20;99.90;;;;;;4994271;28;20588;-68
2022/11/29 07:58:42;;;;;;;35.77;15.70;;;10.20;99.90;;;;;;4994240;28;20545;-68
2022/11/29 08:01:07;;;;;;;34.60;15.07;;;10.20;99.90;;;;;;4993597;28;20220;-68
2022/11/29 08:03:34;;;;;;;35.13;14.87;;;10.20;99.90;;;;;;4994024;28;20177;-68
2022/11/29 08:06:00;;;;;;;37.33;15.87;;;10.20;99.90;;;;;;4994013;28;20275;-68
2022/11/29 08:08:26;;;;;;;28.73;13.47;;;10.20;99.90;;;;;;4993739;28;20435;-68
2022/11/29 08:10:51;;;;;;;41.67;15.67;;;10.20;99.90;;;;;;4993887;28;20424;-68
2022/11/29 08:13:19;;;;;;;34.47;13.90;;;10.20;99.90;;;;;;4993964;28;20185;-68
2022/11/29 08:15:46;;;;;;;35.87;14.17;;;10.20;99.90;;;;;;4993878;28;20193;-70
2022/11/29 08:18:12;;;;;;;39.07;15.20;;;10.20;99.90;;;;;;4992389;28;20444;-68
2022/11/29 08:20:40;;;;;;;34.47;15.20;;;10.20;99.90;;;;;;4990919;28;20443;-68
2022/11/29 08:23:05;;;;;;;35.37;15.23;;;10.20;99.90;;;;;;4982277;28;20986;-68
2022/11/29 08:25:31;;;;;;;35.00;15.23;;;10.20;99.90;;;;;;4978263;28;20436;-68
2022/11/29 08:27:56;;;;;;;32.70;14.20;;;10.20;99.90;;;;;;4980998;28;20561;-68
2022/11/29 08:30:22;;;;;;;42.07;16.77;;;10.20;99.90;;;;;;4982977;28;20181;-67
2022/11/29 08:32:49;;;;;;;39.70;15.40;;;10.20;99.90;;;;;;4984236;28;20177;-67
2022/11/29 08:35:15;;;;;;;28.77;15.17;;;10.20;99.90;;;;;;4981488;28;20178;-67
2022/11/29 08:37:41;;;;;;;33.70;13.13;;;10.20;99.90;;;;;;4984024;28;20799;-69
2022/11/29 08:40:07;;;;;;;24.47;12.13;;;10.20;99.90;;;;;;4981849;28;20467;-69
2022/11/29 08:42:33;;;;;;;27.77;12.23;;;10.20;99.90;;;;;;4983568;28;20211;-69
2022/11/29 08:44:58;;;;;;;24.80;12.50;;;10.20;99.90;;;;;;4981843;28;20429;-70
2022/11/29 08:47:36;;;;;;;37.60;14.80;;;10.20;99.90;;;;;;4984380;28;20188;-68
2022/11/29 08:50:13;;;;;;;36.50;13.70;;;10.20;99.90;;;;;;4983070;28;20173;-68
2022/11/29 08:55:33;;;;;;;25.53;11.83;;;10.20;99.90;;;;;;4980675;28;20584;-68
2022/11/29 08:58:06;;;;;;;28.10;14.27;;;10.30;99.90;;;;;;4973024;28;20782;-68
2022/11/29 09:00:32;;;;;;;36.57;14.27;;;10.20;99.90;;;;;;4973040;28;20504;-68
2022/11/29 09:03:58;;;;;;;38.80;13.83;;;10.30;99.90;;;;;;4972806;28;20571;-68
2022/11/29 09:05:44;;;;;;;37.10;12.50;;;10.20;99.90;;;;;;4973067;28;20646;-68
2022/11/29 09:08:09;;;;;;;32.80;14.60;;;10.20;99.90;;;;;;4973017;28;20520;-68
2022/11/29 09:10:37;;;;;;;32.30;13.53;;;10.20;99.90;;;;;;4978232;28;20200;-68
2022/11/29 09:13:03;;;;;;;35.20;15.10;;;10.30;99.90;;;;;;4973006;28;20549;-68
2022/11/29 09:15:28;;;;;;;31.60;13.87;;;10.30;99.90;;;;;;4973081;28;20429;-68
2022/11/29 09:17:54;;;;;;;28.83;12.93;;;10.30;99.90;;;;;;4972829;28;20630;-68
2022/11/29 09:20:19;;;;;;;41.47;14.80;;;10.30;99.90;;;;;;4975635;28;20188;-68
2022/11/29 09:22:45;;;;;;;40.63;15.33;;;10.30;99.90;;;;;;4983250;28;20219;-68
2022/11/29 09:25:10;;;;;;;28.33;14.60;;;10.30;99.90;;;;;;4977799;28;20503;-68
2022/11/29 09:27:36;;;;;;;34.90;12.27;;;10.30;99.90;;;;;;4972822;28;20178;-69
2022/11/29 09:30:02;;;;;;;33.50;13.87;;;10.30;99.90;;;;;;4972904;28;20182;-69
2022/11/29 09:32:27;;;;;;;39.07;15.30;;;10.40;99.90;;;;;;4972761;28;20240;-68
2022/11/29 09:34:53;;;;;;;33.53;14.87;;;10.50;99.90;;;;;;4984961;28;20193;-68
2022/11/29 09:37:18;;;;;;;39.17;15.43;;;10.80;99.90;;;;;;4984972;28;20189;-68
2022/11/29 09:39:44;;;;;;;39.10;11.80;;;10.80;99.90;;;;;;4981305;28;20224;-69
2022/11/29 09:42:37;;;;;;;30.77;12.70;;;10.80;99.90;;;;;;4985386;28;20240;-68
2022/11/29 09:45:02;;;;;;;35.87;12.47;;;10.80;99.90;;;;;;4986090;28;20220;-69
2022/11/29 09:47:56;;;;;;;26.07;12.00;;;10.70;99.90;;;;;;4987292;28;20420;-68
2022/11/29 09:50:26;;;;;;;33.80;12.73;;;10.70;99.90;;;;;;4985063;28;20169;-68
2022/11/29 09:53:29;;;;;;;37.40;12.73;;;10.70;99.90;;;;;;4984639;28;20428;-68
2022/11/29 09:56:26;;;;;;;29.57;12.10;;;10.70;99.90;;;;;;4986115;28;20436;-67
2022/11/29 09:58:59;;;;;;;38.13;11.87;;;10.70;99.90;;;;;;4986369;28;20900;-68
2022/11/29 10:01:33;;;;;;;32.87;14.73;;;10.70;99.90;;;;;;4985995;28;20472;-69
2022/11/29 10:04:08;;;;;;;27.23;11.60;;;10.70;99.90;;;;;;4986641;28;20425;-68
2022/11/29 10:06:57;;;;;;;30.37;11.07;;;10.70;99.90;;;;;;4985440;28;20793;-67
2022/11/29 10:10:05;;;;;;;27.87;10.40;;;10.80;99.90;;;;;;4986210;28;20428;-67
2022/11/29 10:12:48;;;;;;;29.97;9.87;;;10.70;99.90;;;;;;4980571;28;20439;-68
2022/11/29 10:15:27;;;;;;;29.80;12.80;;;10.70;99.90;;;;;;4995137;28;20427;-69
2022/11/29 10:18:00;;;;;;;39.40;12.50;;;10.70;99.90;;;;;;4995172;28;20420;-68
2022/11/29 10:20:32;;;;;;;31.37;12.60;;;10.80;99.90;;;;;;4995164;28;20474;-68
2022/11/29 10:23:16;;;;;;;34.63;13.27;;;10.80;99.90;;;;;;4984340;28;20446;-69
2022/11/29 10:25:51;;;;;;;35.30;13.73;;;10.80;99.90;;;;;;4985719;28;20507;-69
2022/11/29 10:28:20;;;;;;;38.60;12.37;;;10.80;99.90;;;;;;4984844;28;20448;-68
2022/11/29 10:30:46;;;;;;;33.90;15.37;;;10.80;99.90;;;;;;4983568;28;20888;-68
2022/11/29 10:33:43;;;;;;;50.97;14.60;;;10.80;99.90;;;;;;4985409;28;20432;-68
2022/11/29 10:36:24;;;;;;;34.37;15.07;;;10.80;99.90;;;;;;4973890;28;20432;-68
2022/11/29 10:38:52;;;;;;;31.33;13.87;;;10.80;99.90;;;;;;4983708;28;20437;-68
2022/11/29 10:41:21;;;;;;;37.27;13.47;;;10.80;99.90;;;;;;4984359;28;20488;-68
2022/11/29 10:43:49;;;;;;;34.90;15.30;;;10.80;99.90;;;;;;4985453;28;20428;-69
2022/11/29 10:46:35;;;;;;;33.00;14.57;;;10.80;99.90;;;;;;4984298;28;20433;-68
2022/11/29 10:49:04;;;;;;;30.27;15.20;;;10.80;99.90;;;;;;4980256;28;20794;-69
2022/11/29 10:51:31;;;;;;;45.83;15.33;;;10.80;99.90;;;;;;4982399;28;20428;-69
2022/11/29 10:54:11;;;;;;;47.87;17.50;;;10.80;99.90;;;;;;4984038;28;20433;-69
2022/11/29 10:56:39;;;;;;;42.33;17.40;;;10.80;99.90;;;;;;4984022;28;20433;-69
2022/11/29 10:59:08;;;;;;;49.17;20.03;;;10.80;99.90;;;;;;4983307;28;20450;-69
2022/11/29 11:01:39;;;;;;;39.10;17.00;;;10.80;99.90;;;;;;4983546;28;20480;-69
2022/11/29 11:04:08;;;;;;;34.27;17.77;;;10.80;99.90;;;;;;4987666;28;20428;-68
2022/11/29 11:06:51;;;;;;;46.30;19.33;;;10.80;99.90;;;;;;4994196;28;21040;-68
2022/11/29 11:09:45;;;;;;;49.97;18.07;;;10.80;99.90;;;;;;4994043;28;20429;-69
2022/11/29 11:12:14;;;;;;;36.33;16.60;;;10.80;99.90;;;;;;4994242;28;20515;-69
2022/11/29 11:14:40;;;;;;;40.20;17.10;;;10.80;99.90;;;;;;4994110;28;20432;-69
2022/11/29 11:17:24;;;;;;;36.23;15.50;;;10.80;99.90;;;;;;4993627;28;20428;-68
2022/11/29 11:20:22;;;;;;;43.10;16.97;;;10.80;99.90;;;;;;4989076;28;20494;-68
2022/11/29 11:23:05;;;;;;;36.67;15.80;;;10.80;99.90;;;;;;4981648;28;20477;-68
2022/11/29 11:25:38;;;;;;;36.67;14.67;;;10.80;99.90;;;;;;4982190;28;20428;-68
2022/11/29 11:28:25;;;;;;;32.90;15.90;;;10.90;99.90;;;;;;4984673;28;20412;-68
2022/11/29 11:31:01;;;;;;;42.07;16.93;;;10.90;99.90;;;;;;4982697;28;20453;-68
2022/11/29 11:33:28;;;;;;;34.27;15.43;;;10.90;99.90;;;;;;4982553;28;20943;-68
2022/11/29 11:36:06;;;;;;;32.37;14.83;;;10.90;99.90;;;;;;4990368;28;20510;-68
2022/11/29 11:38:51;;;;;;;36.13;16.17;;;10.90;99.90;;;;;;4993577;28;20934;-68
2022/11/29 11:42:35;;;;;;;27.63;16.00;;;11.00;99.90;;;;;;4993306;28;20464;-68
2022/11/29 11:44:28;;;;;;;38.50;15.90;;;11.00;99.90;;;;;;4993535;28;20971;-68
2022/11/29 11:46:53;;;;;;;36.43;16.10;;;11.00;99.90;;;;;;4977290;28;20485;-68
2022/11/29 11:49:28;;;;;;;25.80;15.03;;;11.00;99.90;;;;;;4993487;28;20515;-69
2022/11/29 11:51:53;;;;;;;27.70;13.70;;;11.10;99.90;;;;;;4992131;28;20263;-68
2022/11/29 11:54:19;;;;;;;36.43;17.43;;;11.10;99.90;;;;;;4993257;28;20575;-68
2022/11/29 11:56:45;;;;;;;41.27;17.50;;;11.10;99.90;;;;;;4993220;28;20264;-68
2022/11/29 11:59:28;;;;;;;33.83;15.07;;;11.10;99.90;;;;;;4989959;28;20185;-68
2022/11/29 12:01:54;;;;;;;43.97;15.70;;;11.10;99.90;;;;;;4981905;28;20208;-68
2022/11/29 12:04:28;;;;;;;40.47;17.33;;;11.10;99.90;;;;;;4983780;28;20782;-67
2022/11/29 12:06:55;;;;;;;39.97;16.60;;;11.00;99.90;;;;;;4981889;28;20181;-66
2022/11/29 12:09:44;;;;;;;33.27;16.50;;;11.10;99.90;;;;;;4983367;28;20745;-67
2022/11/29 12:12:16;;;;;;;31.83;19.13;;;11.10;99.90;;;;;;4983965;28;20433;-67
2022/11/29 12:15:00;;;;;;;54.13;20.43;;;11.10;99.90;;;;;;4982910;28;20437;-67
2022/11/29 12:18:00;;;;;;;62.97;22.07;;;11.10;99.90;;;;;;4983361;28;20444;-67
2022/11/29 12:21:10;;;;;;;48.50;21.47;;;11.10;99.90;;;;;;4983100;28;20476;-66
2022/11/29 12:23:51;;;;;;;46.77;19.77;;;11.10;99.90;;;;;;4977960;28;20852;-67
2022/11/29 12:26:37;;;;;;;43.37;19.47;;;11.10;99.90;;;;;;4983409;28;20896;-67
2022/11/29 12:29:11;;;;;;;38.07;19.70;;;11.10;99.90;;;;;;4982764;28;20439;-68
2022/11/29 12:32:08;;;;;;;46.03;22.20;;;11.10;99.90;;;;;;4981658;28;20496;-68
2022/11/29 12:34:49;;;;;;;46.43;22.73;;;11.10;99.90;;;;;;4955014;28;20448;-68
2022/11/29 12:37:22;;;;;;;42.83;21.17;;;11.10;99.90;;;;;;4982744;28;20447;-68
2022/11/29 12:39:56;;;;;;;45.13;24.13;;;11.10;99.90;;;;;;4973396;28;20459;-68
2022/11/29 12:42:40;;;;;;;46.70;23.87;;;11.10;99.90;;;;;;4980229;28;21096;-68
2022/11/29 12:45:39;;;;;;;64.27;21.70;;;11.10;99.90;;;;;;4983303;28;20971;-68
2022/11/29 12:48:26;;;;;;;56.03;26.03;;;11.00;99.90;;;;;;4983109;28;20435;-68
2022/11/29 12:51:19;;;;;;;51.03;26.43;;;11.00;99.90;;;;;;4981430;28;20425;-68
2022/11/29 12:54:22;;;;;;;48.87;23.40;;;11.00;99.90;;;;;;4983143;28;20421;-68
2022/11/29 12:57:03;;;;;;;49.30;23.60;;;11.00;99.90;;;;;;4983570;28;20795;-68
2022/11/29 12:59:49;;;;;;;59.00;23.80;;;11.00;99.90;;;;;;4984484;28;20514;-68
2022/11/29 13:02:41;;;;;;;54.07;23.57;;;11.00;99.90;;;;;;4981665;28;20471;-68
2022/11/29 13:05:21;;;;;;;52.03;27.57;;;11.00;99.90;;;;;;4978257;28;20787;-71
2022/11/29 13:08:11;;;;;;;64.43;26.87;;;11.00;99.90;;;;;;4973061;28;20421;-71
2022/11/29 13:10:56;;;;;;;53.97;25.13;;;11.00;99.90;;;;;;4973115;28;20464;-72
2022/11/29 13:13:39;;;;;;;63.67;27.90;;;11.00;99.90;;;;;;4973080;28;20436;-72
2022/11/29 13:16:10;;;;;;;51.43;22.60;;;11.00;99.90;;;;;;4976784;28;20552;-68
2022/11/29 13:18:39;;;;;;;55.77;24.20;;;11.00;99.90;;;;;;4976749;28;20428;-68
2022/11/29 13:21:18;;;;;;;51.87;23.90;;;11.00;99.90;;;;;;4976550;28;20824;-68
2022/11/29 13:23:55;;;;;;;47.90;23.07;;;11.00;99.90;;;;;;4976532;28;20493;-68
2022/11/29 13:26:23;;;;;;;62.63;23.70;;;11.00;99.90;;;;;;4976718;28;20812;-68
2022/11/29 13:28:50;;;;;;;53.07;23.97;;;11.00;99.90;;;;;;4976562;28;20790;-68
2022/11/29 13:31:21;;;;;;;57.20;23.27;;;11.00;99.90;;;;;;4980902;28;20555;-68
2022/11/29 13:33:58;;;;;;;52.47;23.17;;;11.00;99.90;;;;;;4985151;28;20443;-67
2022/11/29 13:36:38;;;;;;;65.93;27.53;;;11.00;99.90;;;;;;4986423;28;20507;-67
2022/11/29 13:39:27;;;;;;;58.07;25.50;;;10.90;99.90;;;;;;4984561;28;20934;-67
2022/11/29 13:42:16;;;;;;;57.83;24.70;;;10.90;99.90;;;;;;4985660;28;20524;-68
2022/11/29 13:45:19;;;;;;;56.10;20.73;;;10.90;99.90;;;;;;4986456;28;20918;-69
2022/11/29 13:47:54;;;;;;;58.33;24.10;;;10.90;99.90;;;;;;4984461;28;20441;-68
2022/11/29 13:50:43;;;;;;;50.33;22.20;;;10.90;99.90;;;;;;4985244;28;20423;-68
2022/11/29 13:53:16;;;;;;;49.97;22.93;;;10.90;99.90;;;;;;4977494;28;20939;-68
2022/11/29 13:55:48;;;;;;;52.77;24.20;;;10.90;99.90;;;;;;4985075;28;20425;-66
2022/11/29 13:58:13;;;;;;;57.73;23.90;;;10.90;99.90;;;;;;4985091;28;20437;-66
2022/11/29 14:00:42;;;;;;;51.73;22.90;;;10.90;99.90;;;;;;4986002;28;20429;-66
2022/11/29 14:03:17;;;;;;;53.43;22.77;;;10.90;99.90;;;;;;4985471;28;20247;-66
2022/11/29 14:05:45;;;;;;;52.00;22.80;;;10.90;99.90;;;;;;4983675;28;20460;-66
2022/11/29 14:08:42;;;;;;;50.33;22.70;;;10.90;99.90;;;;;;4984117;28;21477;-66
2022/11/29 14:11:13;;;;;;;52.10;22.17;;;10.90;99.90;;;;;;4985665;28;20566;-67
2022/11/29 14:14:03;;;;;;;73.60;26.70;;;10.90;99.90;;;;;;4984560;28;20437;-67
2022/11/29 14:16:37;;;;;;;56.00;25.60;;;10.90;99.90;;;;;;4983638;28;20468;-67
2022/11/29 14:19:09;;;;;;;57.70;22.97;;;10.90;99.90;;;;;;4984374;28;20848;-69
2022/11/29 14:22:05;;;;;;;66.38;28.38;;;10.90;99.90;;;;;;4983734;28;20960;-68
2022/11/29 14:24:36;;;;;;;55.07;25.43;;;10.90;99.90;;;;;;4993840;28;20184;-68
2022/11/29 14:27:05;;;;;;;61.00;26.83;;;11.00;99.90;;;;;;4974714;28;20853;-68
2022/11/29 14:29:49;;;;;;;61.20;25.03;;;11.00;99.90;;;;;;4982540;28;20429;-68
2022/11/29 14:32:45;;;;;;;56.23;24.90;;;11.00;99.90;;;;;;4994717;28;20517;-66
2022/11/29 14:35:10;;;;;;;67.93;24.90;;;11.00;99.90;;;;;;4994446;28;20424;-66
2022/11/29 14:37:57;;;;;;;69.07;27.57;;;11.00;99.90;;;;;;4994685;28;20491;-66
2022/11/29 14:40:41;;;;;;;59.70;25.33;;;11.00;99.90;;;;;;4994589;28;20192;-65
2022/11/29 14:43:31;;;;;;;58.70;24.10;;;10.90;99.90;;;;;;4994479;28;20440;-67
2022/11/29 14:46:10;;;;;;;57.47;26.50;;;10.90;99.90;;;;;;4994876;28;20432;-66
2022/11/29 14:48:37;;;;;;;64.47;27.43;;;10.90;99.90;;;;;;4993260;28;20946;-66
2022/11/29 14:51:17;;;;;;;60.13;25.33;;;10.90;99.90;;;;;;4994504;28;20426;-66
2022/11/29 14:53:45;;;;;;;69.43;29.20;;;10.90;99.90;;;;;;4994476;28;20416;-66
2022/11/29 14:56:34;;;;;;;79.53;27.60;;;10.90;99.90;;;;;;4994406;28;20547;-67
2022/11/29 14:59:36;;;;;;;64.03;27.60;;;10.90;99.90;;;;;;4994028;28;20439;-66
2022/11/29 15:02:26;;;;;;;84.03;27.93;;;10.90;99.90;;;;;;4994528;28;20494;-68
2022/11/29 15:04:55;;;;;;;67.67;25.87;;;10.80;99.90;;;;;;4994563;28;20428;-67
2022/11/29 15:07:29;;;;;;;66.67;27.60;;;10.80;99.90;;;;;;4994873;28;20424;-67
2022/11/29 15:10:03;;;;;;;72.63;26.80;;;10.80;99.90;;;;;;4995073;28;20427;-67
2022/11/29 15:12:34;;;;;;;69.77;26.70;;;10.80;99.90;;;;;;4995165;28;20432;-66
2022/11/29 15:15:11;;;;;;;64.27;27.80;;;10.80;99.90;;;;;;4994614;28;20424;-66
2022/11/29 15:17:59;;;;;;;62.70;27.47;;;10.80;99.90;;;;;;4995002;28;20423;-66
2022/11/29 15:20:47;;;;;;;67.50;26.50;;;10.80;99.90;;;;;;4995077;28;20764;-66
2022/11/29 15:23:17;;;;;;;68.40;24.80;;;10.80;99.90;;;;;;4993393;28;20959;-68
2022/11/29 15:25:51;;;;;;;62.13;26.77;;;10.80;99.90;;;;;;4993677;28;20466;-67
2022/11/29 15:28:26;;;;;;;70.83;26.20;;;10.80;99.90;;;;;;4993499;28;20421;-67
2022/11/29 15:31:08;;;;;;;67.77;27.90;;;10.80;99.90;;;;;;4993254;28;20458;-66
2022/11/29 15:33:39;;;;;;;73.13;28.37;;;10.80;99.90;;;;;;4993882;28;20875;-66
2022/11/29 15:36:18;;;;;;;72.60;30.77;;;10.80;99.90;;;;;;4993078;28;20416;-68
2022/11/29 15:38:45;;;;;;;62.30;29.47;;;10.80;99.90;;;;;;4973650;28;20433;-69
2022/11/29 15:41:23;;;;;;;63.43;28.60;;;10.80;99.90;;;;;;4984311;28;21017;-71
2022/11/29 15:43:52;;;;;;;60.87;26.80;;;10.80;99.90;;;;;;4994562;28;20463;-70
2022/11/29 15:46:19;;;;;;;66.83;26.57;;;10.80;99.90;;;;;;4994488;28;20425;-70
2022/11/29 15:48:45;;;;;;;62.27;28.70;;;10.80;99.90;;;;;;4993860;28;20523;-69
2022/11/29 15:51:31;;;;;;;55.50;24.70;;;10.80;99.90;;;;;;4990522;28;20523;-73
2022/11/29 15:54:00;;;;;;;63.17;26.67;;;10.80;99.90;;;;;;4983361;28;20177;-73
2022/11/29 15:56:47;;;;;;;56.57;25.10;;;10.80;99.90;;;;;;4980294;28;20435;-76
2022/11/29 15:59:21;;;;;;;67.33;27.43;;;10.80;99.90;;;;;;4986415;28;20458;-77
2022/11/29 16:01:49;;;;;;;65.33;28.57;;;10.80;99.90;;;;;;4984300;28;21069;-75
2022/11/29 16:04:18;;;;;;;71.97;26.83;;;10.70;99.90;;;;;;4981486;28;20794;-80
2022/11/29 16:06:46;;;;;;;53.13;26.83;;;10.70;99.90;;;;;;4983361;28;20942;-77
2022/11/29 16:09:26;;;;;;;66.50;27.97;;;10.70;99.90;;;;;;4983983;28;20523;-75
2022/11/29 16:11:52;;;;;;;60.88;23.75;;;10.70;99.90;;;;;;4977980;28;20424;-75
2022/11/29 16:14:24;;;;;;;65.23;26.63;;;11.10;99.90;;;;;;4983961;28;20208;-77
2022/11/29 16:16:53;;;;;;;64.27;26.23;;;11.20;99.90;;;;;;4982751;28;20241;-80
2022/11/29 16:19:28;;;;;;;69.07;25.50;;;11.10;99.90;;;;;;4984571;28;20463;-76
2022/11/29 16:22:12;;;;;;;67.13;24.10;;;11.00;99.90;;;;;;4982544;28;20527;-78
2022/11/29 16:24:44;;;;;;;57.07;22.37;;;10.90;99.90;;;;;;4982732;28;21162;-75
2022/11/29 16:27:12;;;;;;;54.50;23.33;;;10.90;99.90;;;;;;4983328;28;20465;-73
2022/11/29 16:29:43;;;;;;;58.57;21.67;;;10.90;99.90;;;;;;4986354;28;20433;-73
2022/11/29 16:32:32;;;;;;;66.27;24.20;;;10.80;99.90;;;;;;4983008;28;20520;-74
2022/11/29 16:35:28;;;;;;;65.43;24.13;;;10.80;99.90;;;;;;4984873;28;20444;-75
2022/11/29 16:37:54;;;;;;;54.37;21.67;;;10.70;99.90;;;;;;4972516;28;20897;-72
2022/11/29 16:40:26;;;;;;;54.83;20.70;;;10.70;99.90;;;;;;4983787;28;20835;-74
2022/11/29 16:43:19;;;;;;;57.07;23.07;;;10.70;99.90;;;;;;4983438;28;20471;-73
2022/11/29 16:45:45;;;;;;;48.80;20.63;;;10.70;99.90;;;;;;4983601;28;20438;-74
2022/11/29 16:48:29;;;;;;;46.43;20.43;;;10.70;99.90;;;;;;4980862;28;20440;-76
2022/11/29 16:51:10;;;;;;;53.33;22.80;;;10.70;99.90;;;;;;4982788;28;20212;-74
2022/11/29 16:53:43;;;;;;;58.50;19.30;;;10.60;99.90;;;;;;4987848;28;20945;-77
2022/11/29 16:56:13;;;;;;;45.80;19.40;;;10.60;99.90;;;;;;4988236;28;20976;-76
2022/11/29 16:58:40;;;;;;;59.93;22.10;;;10.60;99.90;;;;;;4985227;28;20953;-76
2022/11/29 17:01:26;;;;;;;50.37;22.07;;;10.60;99.90;;;;;;4987953;28;20884;-75
2022/11/29 17:03:54;;;;;;;47.73;19.57;;;10.60;99.90;;;;;;4986625;28;20436;-76
2022/11/29 17:06:22;;;;;;;46.53;17.77;;;10.60;99.90;;;;;;4988259;28;20527;-78
2022/11/29 17:08:49;;;;;;;40.20;17.80;;;10.60;99.90;;;;;;4986242;28;20920;-74
2022/11/29 17:11:15;;;;;;;43.13;16.80;;;10.60;99.90;;;;;;4987313;28;20877;-79
2022/11/29 17:13:40;;;;;;;42.90;15.67;;;10.60;99.90;;;;;;4986277;28;20461;-77